createdAt,value
2019-03-25T00:00:09.275Z,32.90
2019-03-25T00:02:42.850Z,32.90
2019-03-25T00:05:14.286Z,34.53
2019-03-25T00:07:45.445Z,34.73
2019-03-25T00:10:16.561Z,35.15
2019-03-25T00:12:48.130Z,35.73
2019-03-25T00:15:19.311Z,37.58
2019-03-25T00:17:50.622Z,37.08
2019-03-25T00:20:22.073Z,37.53
2019-03-25T00:22:53.644Z,40.25
2019-03-25T00:25:25.040Z,43.28
2019-03-25T00:27:56.187Z,43.33
2019-03-25T00:30:27.373Z,42.53
2019-03-25T00:32:58.519Z,43.50
2019-03-25T00:35:30.070Z,44.00
2019-03-25T00:38:02.056Z,43.45
2019-03-25T00:40:33.582Z,46.75
2019-03-25T00:43:04.968Z,46.63
2019-03-25T00:45:36.214Z,45.48
2019-03-25T00:48:07.841Z,48.23
2019-03-25T00:50:39.110Z,46.60
2019-03-25T00:53:10.421Z,47.03
2019-03-25T00:55:41.890Z,47.65
2019-03-25T00:58:14.065Z,48.78
2019-03-25T01:00:46.271Z,57.35
2019-03-25T01:03:18.355Z,54.03
2019-03-25T01:05:49.595Z,57.30
2019-03-25T01:08:21.776Z,53.50
2019-03-25T01:10:52.819Z,54.83
2019-03-25T01:13:24.409Z,53.23
2019-03-25T01:15:55.852Z,56.00
2019-03-25T01:18:26.979Z,55.40
2019-03-25T01:20:58.164Z,54.75
2019-03-25T01:23:29.442Z,55.67
2019-03-25T01:26:00.953Z,54.50
2019-03-25T01:28:32.254Z,54.42
2019-03-25T01:31:03.578Z,53.13
2019-03-25T01:33:36.070Z,54.08
2019-03-25T01:36:07.474Z,54.30
2019-03-25T01:38:38.928Z,56.88
2019-03-25T01:41:10.089Z,56.75
2019-03-25T01:43:41.524Z,60.75
2019-03-25T01:46:12.914Z,62.50
2019-03-25T01:48:44.511Z,64.45
2019-03-25T01:51:15.731Z,63.20
2019-03-25T01:53:48.008Z,63.98
2019-03-25T01:56:19.417Z,63.23
2019-03-25T01:58:50.869Z,64.32
2019-03-25T02:01:22.098Z,63.52
2019-03-25T02:03:54.441Z,62.78
2019-03-25T02:06:26.026Z,64.70
2019-03-25T02:08:57.106Z,65.22
2019-03-25T02:11:28.546Z,64.32
2019-03-25T02:13:59.733Z,64.17
2019-03-25T02:16:31.522Z,67.62
2019-03-25T02:19:03.731Z,66.77
2019-03-25T02:21:35.154Z,66.33
2019-03-25T02:24:06.475Z,70.28
2019-03-25T02:26:37.988Z,71.20
2019-03-25T02:29:09.334Z,70.92
2019-03-25T02:31:40.765Z,71.02
2019-03-25T02:34:12.139Z,70.10
2019-03-25T02:36:43.762Z,66.50
2019-03-25T02:39:15.146Z,72.65
2019-03-25T02:41:46.587Z,67.80
2019-03-25T02:44:18.012Z,71.00
2019-03-25T02:46:50.457Z,69.87
2019-03-25T02:49:22.106Z,68.10
2019-03-25T02:51:53.524Z,82.53
2019-03-25T02:54:24.684Z,87.45
2019-03-25T02:56:55.895Z,85.38
2019-03-25T02:59:27.110Z,85.12
2019-03-25T03:01:58.428Z,71.90
2019-03-25T03:04:30.855Z,73.78
2019-03-25T03:07:02.119Z,71.75
2019-03-25T03:09:33.598Z,73.15
2019-03-25T03:12:05.116Z,77.25
2019-03-25T03:14:36.957Z,77.12
2019-03-25T03:17:09.137Z,79.82
2019-03-25T03:19:40.659Z,77.60
2019-03-25T03:22:12.186Z,87.17
2019-03-25T03:24:43.608Z,85.07
2019-03-25T03:27:15.091Z,74.75
2019-03-25T03:29:46.850Z,81.55
2019-03-25T03:32:18.157Z,69.95
2019-03-25T03:34:49.551Z,68.87
2019-03-25T03:37:22.217Z,67.05
2019-03-25T03:39:53.432Z,65.90
2019-03-25T03:42:25.611Z,63.33
2019-03-25T03:44:56.849Z,66.67
2019-03-25T03:47:28.528Z,65.95
2019-03-25T03:49:59.942Z,68.90
2019-03-25T03:52:31.494Z,68.47
2019-03-25T03:55:05.290Z,63.52
2019-03-25T03:57:37.342Z,62.50
2019-03-25T04:00:10.437Z,60.45
2019-03-25T04:02:43.173Z,65.65
2019-03-25T04:05:15.126Z,63.28
2019-03-25T04:07:46.337Z,61.92
2019-03-25T04:10:17.844Z,64.58
2019-03-25T04:12:49.017Z,66.72
2019-03-25T04:15:29.647Z,64.45
2019-03-25T04:18:01.915Z,63.58
2019-03-25T04:20:32.997Z,60.75
2019-03-25T04:23:04.811Z,64.17
2019-03-25T04:25:37.373Z,64.82
2019-03-25T04:28:10.140Z,62.50
2019-03-25T04:30:41.610Z,60.03
2019-03-25T04:33:13.081Z,60.15
2019-03-25T04:35:44.501Z,56.70
2019-03-25T04:38:15.977Z,57.10
2019-03-25T04:40:46.986Z,58.28
2019-03-25T04:43:18.561Z,55.73
2019-03-25T04:45:49.821Z,64.37
2019-03-25T04:48:21.014Z,61.30
2019-03-25T04:50:52.378Z,64.53
2019-03-25T04:53:24.179Z,59.25
2019-03-25T04:55:55.584Z,52.15
2019-03-25T04:58:27.224Z,56.35
2019-03-25T05:00:58.835Z,54.33
2019-03-25T05:03:30.327Z,52.83
2019-03-25T05:06:03.482Z,48.78
2019-03-25T05:08:35.862Z,44.83
2019-03-25T05:11:08.286Z,47.23
2019-03-25T05:13:39.549Z,46.33
2019-03-25T05:16:10.700Z,45.30
2019-03-25T05:18:42.598Z,46.42
2019-03-25T05:21:14.235Z,44.95
2019-03-25T05:23:45.782Z,43.38
2019-03-25T05:26:17.645Z,43.42
2019-03-25T05:28:49.422Z,44.55
2019-03-25T05:31:23.184Z,51.28
2019-03-25T05:33:54.713Z,56.68
2019-03-25T05:36:26.239Z,60.33
2019-03-25T05:38:57.729Z,59.80
2019-03-25T05:41:29.176Z,61.20
2019-03-25T05:44:00.626Z,58.28
2019-03-25T05:46:32.041Z,56.85
2019-03-25T05:49:03.372Z,55.67
2019-03-25T05:51:34.981Z,57.40
2019-03-25T05:54:06.800Z,57.43
2019-03-25T05:56:38.261Z,54.00
2019-03-25T05:59:10.444Z,50.43
2019-03-25T06:01:44.097Z,49.83
2019-03-25T06:04:14.896Z,50.88
2019-03-25T06:06:47.275Z,50.12
2019-03-25T06:09:19.818Z,51.02
2019-03-25T06:11:51.720Z,50.60
2019-03-25T06:14:23.140Z,50.70
2019-03-25T06:16:54.388Z,51.18
2019-03-25T06:19:25.831Z,49.15
2019-03-25T06:21:57.237Z,49.60
2019-03-25T06:24:28.967Z,49.15
2019-03-25T06:27:00.166Z,47.70
2019-03-25T06:29:32.095Z,47.48
2019-03-25T06:32:04.732Z,45.95
2019-03-25T06:34:35.993Z,45.98
2019-03-25T06:37:07.470Z,46.63
2019-03-25T06:39:38.878Z,47.75
2019-03-25T06:42:10.961Z,47.85
2019-03-25T06:44:42.294Z,47.27
2019-03-25T06:47:13.599Z,45.65
2019-03-25T06:49:44.808Z,44.25
2019-03-25T06:52:17.048Z,42.70
2019-03-25T06:54:49.075Z,43.50
2019-03-25T06:57:25.817Z,40.30
2019-03-25T06:59:54.907Z,41.75
2019-03-25T07:02:44.821Z,42.70
2019-03-25T07:05:16.547Z,37.33
2019-03-25T07:07:48.062Z,36.90
2019-03-25T07:10:30.521Z,36.95
2019-03-25T07:13:02.792Z,37.15
2019-03-25T07:15:34.168Z,38.48
2019-03-25T07:18:05.577Z,38.28
2019-03-25T07:20:36.886Z,37.45
2019-03-25T07:23:08.155Z,37.65
2019-03-25T07:25:40.702Z,35.83
2019-03-25T07:28:11.790Z,34.58
2019-03-25T07:30:43.348Z,33.55
2019-03-25T07:33:14.594Z,29.80
2019-03-25T07:35:46.656Z,29.30
2019-03-25T07:38:18.211Z,28.90
2019-03-25T07:40:51.462Z,32.35
2019-03-25T07:43:25.164Z,29.40
2019-03-25T07:45:57.308Z,28.52
2019-03-25T07:48:28.497Z,26.50
2019-03-25T07:50:59.812Z,25.77
2019-03-25T07:53:31.914Z,29.92
2019-03-25T07:56:03.434Z,28.38
2019-03-25T07:58:36.884Z,30.27
2019-03-25T08:01:08.420Z,21.52
2019-03-25T08:03:41.846Z,19.25
2019-03-25T08:06:13.443Z,14.60
2019-03-25T08:08:45.585Z,10.13
2019-03-25T08:11:17.910Z,10.70
2019-03-25T08:13:52.857Z,10.82
2019-03-25T08:16:25.260Z,12.05
2019-03-25T08:18:57.543Z,11.03
2019-03-25T08:21:29.723Z,9.20
2019-03-25T08:24:01.107Z,11.05
2019-03-25T08:26:32.382Z,11.18
2019-03-25T08:29:03.629Z,11.57
2019-03-25T08:31:34.916Z,10.98
2019-03-25T08:34:06.193Z,10.72
2019-03-25T08:36:37.495Z,10.48
2019-03-25T08:39:08.652Z,10.13
2019-03-25T08:41:39.937Z,10.65
2019-03-25T08:44:12.248Z,10.35
2019-03-25T08:46:43.355Z,11.10
2019-03-25T08:49:15.131Z,10.60
2019-03-25T08:51:52.110Z,10.25
2019-03-25T08:54:27.864Z,10.15
2019-03-25T08:56:59.408Z,11.65
2019-03-25T08:59:31.732Z,11.68
2019-03-25T09:02:03.931Z,13.13
2019-03-25T09:04:35.304Z,19.55
2019-03-25T09:07:08.696Z,12.05
2019-03-25T09:09:41.668Z,12.13
2019-03-25T09:12:14.017Z,10.93
2019-03-25T09:14:54.657Z,10.50
2019-03-25T09:17:28.310Z,10.43
2019-03-25T09:20:01.545Z,10.38
2019-03-25T09:22:34.956Z,10.78
2019-03-25T09:25:07.555Z,10.82
2019-03-25T09:30:11.695Z,9.13
2019-03-25T09:32:43.071Z,9.20
2019-03-25T09:35:15.468Z,9.08
2019-03-25T09:37:48.496Z,9.05
2019-03-25T09:40:23.396Z,9.63
2019-03-25T09:42:54.765Z,9.37
2019-03-25T09:45:30.999Z,9.15
2019-03-25T09:48:02.682Z,9.13
2019-03-25T09:50:34.167Z,9.28
2019-03-25T09:53:05.597Z,9.18
2019-03-25T09:55:37.140Z,9.60
2019-03-25T09:58:08.415Z,23.25
2019-03-25T10:00:39.574Z,8.95
2019-03-25T10:03:11.847Z,8.20
2019-03-25T10:05:42.887Z,9.78
2019-03-25T10:08:19.304Z,9.43
2019-03-25T10:10:51.593Z,9.10
2019-03-25T10:13:23.328Z,9.08
2019-03-25T10:15:56.802Z,10.10
2019-03-25T10:18:28.120Z,9.85
2019-03-25T10:21:00.003Z,8.90
2019-03-25T10:23:32.031Z,10.82
2019-03-25T10:26:03.223Z,10.23
2019-03-25T10:28:34.596Z,10.85
2019-03-25T10:31:05.770Z,9.43
2019-03-25T10:33:37.023Z,9.50
2019-03-25T10:36:08.474Z,9.15
2019-03-25T10:38:44.356Z,9.28
2019-03-25T10:41:16.689Z,8.45
2019-03-25T10:43:49.494Z,8.80
2019-03-25T10:46:22.005Z,10.00
2019-03-25T10:48:54.250Z,9.30
2019-03-25T10:51:25.617Z,8.88
2019-03-25T10:53:57.040Z,9.25
2019-03-25T10:56:29.462Z,8.90
2019-03-25T10:59:01.858Z,8.33
2019-03-25T11:01:33.069Z,8.63
2019-03-25T11:04:04.387Z,8.05
2019-03-25T11:06:35.724Z,8.78
2019-03-25T11:09:07.451Z,10.58
2019-03-25T11:11:39.677Z,9.48
2019-03-25T11:14:12.036Z,8.95
2019-03-25T11:16:43.199Z,7.87
2019-03-25T11:19:14.544Z,7.92
2019-03-25T11:21:53.468Z,7.53
2019-03-25T11:24:26.241Z,8.53
2019-03-25T11:26:58.488Z,8.28
2019-03-25T11:29:30.670Z,8.90
2019-03-25T11:32:02.300Z,8.08
2019-03-25T11:34:33.986Z,8.08
2019-03-25T11:37:05.145Z,7.35
2019-03-25T11:39:37.476Z,8.10
2019-03-25T11:42:11.677Z,8.08
2019-03-25T11:44:47.049Z,8.20
2019-03-25T11:47:18.350Z,7.83
2019-03-25T11:49:52.240Z,8.18
2019-03-25T11:52:30.117Z,8.00
2019-03-25T11:55:02.503Z,8.50
2019-03-25T11:57:35.546Z,7.78
2019-03-25T12:00:08.591Z,6.90
2019-03-25T12:02:41.453Z,7.12
2019-03-25T12:05:12.812Z,6.92
2019-03-25T12:07:47.072Z,7.03
2019-03-25T12:10:19.371Z,7.50
2019-03-25T12:12:51.587Z,7.17
2019-03-25T12:15:24.953Z,7.30
2019-03-25T12:18:01.523Z,6.95
2019-03-25T12:20:33.047Z,7.42
2019-03-25T12:23:10.815Z,8.45
2019-03-25T12:25:42.268Z,7.35
2019-03-25T12:28:13.698Z,7.65
2019-03-25T12:30:44.921Z,8.25
2019-03-25T12:33:17.220Z,9.70
2019-03-25T12:35:48.635Z,10.13
2019-03-25T12:38:20.255Z,8.20
2019-03-25T12:40:52.632Z,8.15
2019-03-25T12:43:23.704Z,9.45
2019-03-25T12:45:54.958Z,7.08
2019-03-25T12:48:26.809Z,8.78
2019-03-25T12:50:58.592Z,8.30
2019-03-25T12:53:29.764Z,9.15
2019-03-25T12:56:02.247Z,8.55
2019-03-25T12:58:33.520Z,9.65
2019-03-25T13:01:08.659Z,9.88
2019-03-25T13:03:40.958Z,9.78
2019-03-25T13:06:14.365Z,9.33
2019-03-25T13:08:45.986Z,9.58
2019-03-25T13:11:17.394Z,9.50
2019-03-25T13:13:56.468Z,17.02
2019-03-25T13:16:36.745Z,8.95
2019-03-25T13:19:20.194Z,9.93
2019-03-25T13:21:56.391Z,9.40
2019-03-25T13:24:41.585Z,9.45
2019-03-25T13:27:18.282Z,9.43
2019-03-25T13:29:59.210Z,11.70
2019-03-25T13:32:37.235Z,13.75
2019-03-25T13:35:42.144Z,10.00
2019-03-25T13:38:22.824Z,9.88
2019-03-25T13:40:59.107Z,9.80
2019-03-25T13:43:35.567Z,9.20
2019-03-25T13:46:10.481Z,11.57
2019-03-25T13:48:44.904Z,8.98
2019-03-25T13:51:19.410Z,11.05
2019-03-25T13:53:59.834Z,8.28
2019-03-25T13:56:32.207Z,9.00
2019-03-25T13:59:03.637Z,9.13
2019-03-25T14:01:35.503Z,9.15
2019-03-25T14:04:06.781Z,9.20
2019-03-25T14:06:40.194Z,19.35
2019-03-25T14:09:11.832Z,12.10
2019-03-25T14:11:44.364Z,13.20
2019-03-25T14:14:16.678Z,15.70
2019-03-25T14:16:49.081Z,16.57
2019-03-25T14:19:32.442Z,16.73
2019-03-25T14:22:03.866Z,14.25
2019-03-25T14:24:39.479Z,13.88
2019-03-25T14:27:13.006Z,13.45
2019-03-25T14:29:44.385Z,13.50
2019-03-25T14:32:15.707Z,25.88
2019-03-25T14:34:47.153Z,11.90
2019-03-25T14:37:21.226Z,12.68
2019-03-25T14:39:53.394Z,11.90
2019-03-25T14:42:25.414Z,11.57
2019-03-25T14:45:00.655Z,12.50
2019-03-25T14:47:33.403Z,12.95
2019-03-25T14:50:06.727Z,11.05
2019-03-25T14:52:38.074Z,11.22
2019-03-25T14:55:10.087Z,11.55
2019-03-25T14:57:41.639Z,10.72
2019-03-25T15:00:13.257Z,10.65
2019-03-25T15:02:45.065Z,10.03
2019-03-25T15:05:16.443Z,10.50
2019-03-25T15:07:48.775Z,10.10
2019-03-25T15:10:21.533Z,9.78
2019-03-25T15:12:57.023Z,10.30
2019-03-25T15:15:31.333Z,10.35
2019-03-25T15:18:03.708Z,10.28
2019-03-25T15:20:34.981Z,11.12
2019-03-25T15:23:08.527Z,11.25
2019-03-25T15:25:44.386Z,11.90
2019-03-25T15:28:15.714Z,13.38
2019-03-25T15:30:47.286Z,14.47
2019-03-25T15:33:20.694Z,14.83
2019-03-25T15:35:52.911Z,15.17
2019-03-25T15:38:25.549Z,16.45
2019-03-25T15:40:57.071Z,15.85
2019-03-25T15:43:28.761Z,17.87
2019-03-25T15:46:00.662Z,16.23
2019-03-25T15:48:32.870Z,16.87
2019-03-25T15:51:04.063Z,17.80
2019-03-25T15:53:35.466Z,16.45
2019-03-25T15:56:08.701Z,18.00
2019-03-25T15:58:40.128Z,20.20
2019-03-25T16:01:12.964Z,26.93
2019-03-25T16:03:44.138Z,44.33
2019-03-25T16:06:15.742Z,17.05
2019-03-25T16:08:46.980Z,18.70
2019-03-25T16:11:18.763Z,18.45
2019-03-25T16:13:49.877Z,17.67
2019-03-25T16:16:22.023Z,17.37
2019-03-25T16:18:53.185Z,16.67
2019-03-25T16:21:24.587Z,18.55
2019-03-25T16:23:55.761Z,18.25
2019-03-25T16:26:26.974Z,17.60
2019-03-25T16:28:58.419Z,17.30
2019-03-25T16:31:29.553Z,16.77
2019-03-25T16:34:00.789Z,18.95
2019-03-25T16:36:32.107Z,18.30
2019-03-25T16:39:04.303Z,19.67
2019-03-25T16:41:37.089Z,18.82
2019-03-25T16:44:08.384Z,18.77
2019-03-25T16:46:39.612Z,17.92
2019-03-25T16:49:11.840Z,19.00
2019-03-25T16:51:43.062Z,18.35
2019-03-25T16:54:15.268Z,20.68
2019-03-25T16:56:47.126Z,22.22
2019-03-25T16:59:18.441Z,18.05
2019-03-25T17:01:49.939Z,16.65
2019-03-25T17:04:21.405Z,15.90
2019-03-25T17:06:53.604Z,16.55
2019-03-25T17:09:26.154Z,16.73
2019-03-25T17:11:57.834Z,17.45
2019-03-25T17:14:29.085Z,18.57
2019-03-25T17:17:02.470Z,19.57
2019-03-25T17:19:33.728Z,20.17
2019-03-25T17:22:06.038Z,16.30
2019-03-25T17:24:37.601Z,12.98
2019-03-25T17:27:08.760Z,11.95
2019-03-25T17:29:41.197Z,11.15
2019-03-25T17:32:13.013Z,11.53
2019-03-25T17:34:44.278Z,10.55
2019-03-25T17:37:17.393Z,11.28
2019-03-25T17:39:48.881Z,12.18
2019-03-25T17:42:20.029Z,12.23
2019-03-25T17:44:51.204Z,12.07
2019-03-25T17:47:22.365Z,11.73
2019-03-25T17:49:55.301Z,13.22
2019-03-25T17:52:28.190Z,11.95
2019-03-25T17:54:59.677Z,11.85
2019-03-25T17:57:31.191Z,11.95
2019-03-25T18:00:03.047Z,12.73
2019-03-25T18:02:39.531Z,12.43
2019-03-25T18:05:11.523Z,12.05
2019-03-25T18:07:42.870Z,12.35
2019-03-25T18:10:16.293Z,11.45
2019-03-25T18:12:47.676Z,11.43
2019-03-25T18:15:19.235Z,11.25
2019-03-25T18:17:51.711Z,11.90
2019-03-25T18:20:23.036Z,12.60
2019-03-25T18:22:54.231Z,12.28
2019-03-25T18:25:25.589Z,12.18
2019-03-25T18:27:56.877Z,12.37
2019-03-25T18:30:35.822Z,11.97
2019-03-25T18:33:07.083Z,12.35
2019-03-25T18:35:38.307Z,12.10
2019-03-25T18:38:10.477Z,12.82
2019-03-25T18:40:41.761Z,14.20
2019-03-25T18:43:13.376Z,12.85
2019-03-25T18:45:47.941Z,12.55
2019-03-25T18:48:19.372Z,11.85
2019-03-25T18:50:50.940Z,12.23
2019-03-25T18:53:22.195Z,14.03
2019-03-25T18:55:55.261Z,12.82
2019-03-25T18:58:27.121Z,13.75
2019-03-25T19:01:00.919Z,12.65
2019-03-25T19:03:35.360Z,11.75
2019-03-25T19:06:06.851Z,11.28
2019-03-25T19:08:45.191Z,10.50
2019-03-25T19:11:17.846Z,10.23
2019-03-25T19:13:49.025Z,10.00
2019-03-25T19:16:20.171Z,10.03
2019-03-25T19:18:52.708Z,11.20
2019-03-25T19:21:24.130Z,11.08
2019-03-25T19:23:55.513Z,11.30
2019-03-25T19:26:26.716Z,10.95
2019-03-25T19:29:01.405Z,11.85
2019-03-25T19:31:34.974Z,11.88
2019-03-25T19:34:06.503Z,12.68
2019-03-25T19:36:38.010Z,12.63
2019-03-25T19:39:09.105Z,13.38
2019-03-25T19:41:40.426Z,13.78
2019-03-25T19:44:11.911Z,13.28
2019-03-25T19:46:43.468Z,13.28
2019-03-25T19:49:15.177Z,12.47
2019-03-25T19:51:46.462Z,14.43
2019-03-25T19:54:19.320Z,14.23
2019-03-25T19:56:50.916Z,13.40
2019-03-25T19:59:22.280Z,13.53
2019-03-25T20:01:53.737Z,15.48
2019-03-25T20:04:25.403Z,14.47
2019-03-25T20:06:56.740Z,14.50
2019-03-25T20:09:28.209Z,14.58
2019-03-25T20:11:59.508Z,14.68
2019-03-25T20:14:30.624Z,13.90
2019-03-25T20:17:01.966Z,14.40
2019-03-25T20:19:34.879Z,14.10
2019-03-25T20:22:06.089Z,14.75
2019-03-25T20:24:37.714Z,14.73
2019-03-25T20:27:08.909Z,14.50
2019-03-25T20:29:40.593Z,14.98
2019-03-25T20:32:11.894Z,14.63
2019-03-25T20:34:43.150Z,15.05
2019-03-25T20:37:14.627Z,15.65
2019-03-25T20:39:45.915Z,15.45
2019-03-25T20:42:17.036Z,15.65
2019-03-25T20:44:48.501Z,15.83
2019-03-25T20:47:20.033Z,16.57
2019-03-25T20:49:51.338Z,17.12
2019-03-25T20:52:24.478Z,16.73
2019-03-25T20:54:59.648Z,17.37
2019-03-25T20:57:32.015Z,17.37
2019-03-25T21:00:04.531Z,15.65
2019-03-25T21:02:44.768Z,15.60
2019-03-25T21:05:09.183Z,16.45
2019-03-25T21:07:40.806Z,15.48
2019-03-25T21:10:11.975Z,15.25
2019-03-25T21:12:43.356Z,15.23
2019-03-25T21:15:16.179Z,14.38
2019-03-25T21:17:47.403Z,12.30
2019-03-25T21:20:19.768Z,12.43
2019-03-25T21:22:51.224Z,11.70
2019-03-25T21:25:22.374Z,11.10
2019-03-25T21:27:53.621Z,10.43
2019-03-25T21:30:28.198Z,11.08
2019-03-25T21:32:58.836Z,9.20
2019-03-25T21:35:30.008Z,8.23
2019-03-25T21:38:01.071Z,8.70
2019-03-25T21:40:34.242Z,8.48
2019-03-25T21:43:05.274Z,8.58
2019-03-25T21:45:37.026Z,8.20
2019-03-25T21:48:08.325Z,7.45
2019-03-25T21:50:39.435Z,7.55
2019-03-25T21:53:10.555Z,8.88
2019-03-25T21:55:41.902Z,7.62
2019-03-25T21:58:13.021Z,7.75
2019-03-25T22:00:44.349Z,7.95
2019-03-25T22:03:15.619Z,7.83
2019-03-25T22:05:47.192Z,6.90
2019-03-25T22:08:18.520Z,6.97
2019-03-25T22:10:49.666Z,7.17
2019-03-25T22:13:20.879Z,6.87
2019-03-25T22:15:52.115Z,7.20
2019-03-25T22:18:23.050Z,6.65
2019-03-25T22:20:54.960Z,7.22
2019-03-25T22:23:25.983Z,7.65
2019-03-25T22:25:56.930Z,6.72
2019-03-25T22:28:27.903Z,6.45
2019-03-25T22:30:58.935Z,6.55
2019-03-25T22:33:29.904Z,6.35
2019-03-25T22:36:01.082Z,6.40
2019-03-25T22:38:32.280Z,6.35
2019-03-25T22:41:03.471Z,6.08
2019-03-25T22:43:34.602Z,6.10
2019-03-25T22:46:05.779Z,6.03
2019-03-25T22:48:36.968Z,6.00
2019-03-25T22:51:08.006Z,6.03
2019-03-25T22:53:39.162Z,6.70
2019-03-25T22:56:10.338Z,6.40
2019-03-25T22:58:41.354Z,6.30
2019-03-25T23:01:12.513Z,6.17
2019-03-25T23:03:43.659Z,6.20
2019-03-25T23:06:15.091Z,6.30
2019-03-25T23:08:46.295Z,5.85
2019-03-25T23:11:18.591Z,5.70
2019-03-25T23:13:49.648Z,6.55
2019-03-25T23:16:21.777Z,6.67
2019-03-25T23:18:52.838Z,6.58
2019-03-25T23:21:26.019Z,5.92
2019-03-25T23:23:57.500Z,7.22
2019-03-25T23:26:28.919Z,7.25
2019-03-25T23:29:00.255Z,7.25
2019-03-25T23:31:31.471Z,7.05
2019-03-25T23:34:02.626Z,6.92
2019-03-25T23:36:33.708Z,7.25
2019-03-25T23:39:06.847Z,6.67
2019-03-25T23:41:38.110Z,7.42
2019-03-25T23:44:09.244Z,7.12
2019-03-25T23:46:40.236Z,7.05
2019-03-25T23:49:12.536Z,7.37
2019-03-25T23:51:43.718Z,7.35
2019-03-25T23:54:15.253Z,5.97
2019-03-25T23:56:46.616Z,6.22
2019-03-25T23:59:17.561Z,5.75
